Metar Aviation Weather Data     YSSY Sydney Kingsford Smith International Airport
Temperature
14°C Temperature
8°C Dewpoint
67% Humidity



Wind
47 KM/H
29 MPH
13 M/S
25 KTS



200°
SSW
Current Conditions

Partly Cloudy Partly Cloudy
Pressure 1022.01 (hPa) - 30.18 (inHg)
Visibility 6 (mile) - 9.7 (km)
Airport
Airport-code YSSY

Location: Sydney Kingsford Smith International Airport
Distance: 53 (km)

Metar:
YSSY 172306Z 20025G35KT 9999 FEW032 SCT100 14/08 Q1022 RF00/0/000/0

Time: 18-05-2024 09:06 AEST